Time;durP1;ratioP1;P1;durP2;ratioP2;P2;SDS_P1;SDS_P2;PMS_P1;PMS_P2;Temp;Humidity;BMP_temperature;BMP_pressure;BME280_temperature;BME280_humidity;BME280_pressure;Samples;Min_cycle;Max_cycle;Signal;HPM_P1;HPM_P2
2022/02/11 00:06:56;;;;;;;11.65;6.60;;;2.40;99.90;;;;;;5003047;28;20424;-82
2022/02/11 00:09:23;;;;;;;18.63;7.72;;;2.40;99.90;;;;;;5018340;28;20626;-79
2022/02/11 00:11:49;;;;;;;15.43;7.43;;;2.50;99.90;;;;;;5024314;28;20045;-80
2022/02/11 00:14:17;;;;;;;17.08;7.05;;;2.40;99.90;;;;;;5027443;28;20056;-80
2022/02/11 00:16:44;;;;;;;17.75;7.05;;;2.40;99.90;;;;;;5009767;28;20100;-80
2022/02/11 00:19:11;;;;;;;18.08;7.05;;;2.40;99.90;;;;;;5012813;28;20196;-81
2022/02/11 00:21:38;;;;;;;19.95;8.13;;;2.40;99.90;;;;;;5030940;28;20061;-80
2022/02/11 00:24:05;;;;;;;16.92;7.70;;;2.40;99.90;;;;;;5046485;28;20048;-80
2022/02/11 00:26:38;;;;;;;12.40;7.45;;;2.40;99.90;;;;;;5019949;28;20045;-80
2022/02/11 00:34:38;;;;;;;;;;;2.30;99.90;;;;;;5041306;28;20191;-80
2022/02/11 00:37:12;;;;;;;17.80;8.55;;;2.40;99.90;;;;;;5023976;28;20046;-79
2022/02/11 01:06:19;;;;;;;15.63;8.27;;;2.30;99.90;;;;;;5044554;28;20117;-81
2022/02/11 01:08:45;;;;;;;19.00;8.43;;;2.20;99.90;;;;;;5038093;28;20037;-80
2022/02/11 01:11:19;;;;;;;18.90;8.40;;;2.20;99.90;;;;;;5046089;28;20302;-81
2022/02/11 01:13:46;;;;;;;14.82;7.30;;;2.20;99.90;;;;;;5024908;28;20041;-80
2022/02/11 01:16:18;;;;;;;17.45;7.68;;;2.20;99.90;;;;;;5008641;28;20136;-80
2022/02/11 01:18:52;;;;;;;14.48;8.00;;;2.20;99.90;;;;;;5022490;28;20057;-80
2022/02/11 01:21:27;;;;;;;19.40;9.55;;;2.20;99.90;;;;;;5043774;28;20094;-80
2022/02/11 01:53:35;;;;;;;15.25;7.30;;;2.30;99.90;;;;;;5023502;28;20037;-79
2022/02/11 02:15:05;;;;;;;29.15;13.07;;;2.20;99.90;;;;;;5021252;28;20538;-81
2022/02/11 02:25:40;;;;;;;27.70;14.98;;;2.20;99.90;;;;;;5040469;28;20135;-80
2022/02/11 02:58:16;;;;;;;46.55;22.88;;;2.20;99.90;;;;;;5010336;28;20053;-81
2022/02/11 03:34:32;;;;;;;;;;;2.30;99.90;;;;;;5041205;28;20045;-82
2022/02/11 03:51:33;;;;;;;68.90;33.10;;;2.30;99.90;;;;;;4976903;28;20084;-81
2022/02/11 04:21:33;;;;;;;41.47;21.55;;;2.30;99.90;;;;;;5024871;28;20049;-80
2022/02/11 04:55:17;;;;;;;;;;;2.20;99.90;;;;;;5004896;28;20049;-82
2022/02/11 05:00:29;;;;;;;44.53;19.85;;;2.30;99.90;;;;;;5010348;28;20049;-83
2022/02/11 05:02:57;;;;;;;31.08;16.45;;;2.30;99.90;;;;;;5020725;28;20237;-83
2022/02/11 05:05:25;;;;;;;41.75;19.58;;;2.30;99.90;;;;;;5012400;28;20261;-82
2022/02/11 05:07:52;;;;;;;38.83;17.25;;;2.30;99.90;;;;;;5014020;28;20033;-82
2022/02/11 05:10:19;;;;;;;37.35;18.30;;;2.30;99.90;;;;;;5012220;28;20041;-82
2022/02/11 05:12:46;;;;;;;48.40;18.55;;;2.30;99.90;;;;;;5014297;28;20176;-82
2022/02/11 05:15:15;;;;;;;40.65;18.75;;;2.30;99.90;;;;;;5036903;28;20513;-82
2022/02/11 05:17:51;;;;;;;41.50;17.98;;;2.30;99.90;;;;;;5020715;28;20060;-82
2022/02/11 05:20:18;;;;;;;44.95;20.77;;;2.30;99.90;;;;;;5059434;28;20072;-81
2022/02/11 05:22:45;;;;;;;41.50;18.35;;;2.40;99.90;;;;;;5024552;28;20083;-80
2022/02/11 05:25:12;;;;;;;41.63;17.40;;;2.40;99.90;;;;;;5029619;28;20296;-81
2022/02/11 05:27:39;;;;;;;37.78;18.98;;;2.40;99.90;;;;;;5015021;28;20309;-83
2022/02/11 05:30:07;;;;;;;40.97;17.63;;;2.40;99.90;;;;;;5010656;28;20033;-82
2022/02/11 05:32:34;;;;;;;41.67;18.45;;;2.40;99.90;;;;;;5031791;28;20087;-81
2022/02/11 05:35:01;;;;;;;38.90;18.92;;;2.40;99.90;;;;;;5012339;28;20059;-84
2022/02/11 05:37:28;;;;;;;34.33;17.40;;;2.30;99.90;;;;;;5010616;28;20115;-82
2022/02/11 05:39:55;;;;;;;48.05;17.15;;;2.30;99.90;;;;;;5014895;28;20506;-82
2022/02/11 05:42:22;;;;;;;32.67;17.23;;;2.30;99.90;;;;;;5031390;28;20048;-82
2022/02/11 05:44:49;;;;;;;48.80;24.10;;;2.30;99.90;;;;;;5035217;28;20041;-83
2022/02/11 05:47:16;;;;;;;47.47;21.13;;;2.30;99.90;;;;;;5029954;28;20045;-85
2022/02/11 05:49:43;;;;;;;46.95;22.50;;;2.20;99.90;;;;;;5013573;28;20057;-84
2022/02/11 05:52:09;;;;;;;38.67;21.73;;;2.20;99.90;;;;;;5012751;28;20049;-84
2022/02/11 05:54:36;;;;;;;46.10;20.73;;;2.20;99.90;;;;;;5016436;28;20053;-84
2022/02/11 05:57:03;;;;;;;46.25;22.88;;;2.20;99.90;;;;;;5014966;28;20045;-83
2022/02/11 05:59:30;;;;;;;44.75;24.58;;;2.30;99.90;;;;;;5001889;28;20048;-84
2022/02/11 06:01:57;;;;;;;46.88;23.60;;;2.30;99.90;;;;;;5016830;28;20410;-84
2022/02/11 06:04:24;;;;;;;48.28;22.60;;;2.40;99.90;;;;;;5024084;28;20640;-83
2022/02/11 06:06:52;;;;;;;49.75;26.17;;;2.30;99.90;;;;;;5037986;28;20144;-84
2022/02/11 06:09:20;;;;;;;49.10;25.70;;;2.30;99.90;;;;;;5017498;28;20076;-82
2022/02/11 06:11:46;;;;;;;58.50;29.20;;;2.30;99.90;;;;;;5017808;28;20231;-85
2022/02/11 06:14:13;;;;;;;60.72;28.98;;;2.30;99.90;;;;;;5033464;28;20090;-84
2022/02/11 06:16:40;;;;;;;44.63;23.77;;;2.30;99.90;;;;;;5037256;28;20329;-81
2022/02/11 06:19:07;;;;;;;48.33;25.48;;;2.30;99.90;;;;;;5022073;28;20045;-82
2022/02/11 06:21:34;;;;;;;50.92;25.60;;;2.40;99.90;;;;;;5052528;28;20090;-84
2022/02/11 06:24:00;;;;;;;42.38;24.10;;;2.40;99.90;;;;;;5031966;28;20053;-81
2022/02/11 06:26:27;;;;;;;52.80;25.40;;;2.40;99.90;;;;;;5027300;28;20099;-81
2022/02/11 06:28:57;;;;;;;47.42;24.80;;;2.40;99.90;;;;;;5012764;28;20063;-83
2022/02/11 06:31:26;;;;;;;53.83;25.92;;;2.40;99.90;;;;;;5013116;28;20053;-82
2022/02/11 06:33:53;;;;;;;42.83;22.95;;;2.50;99.90;;;;;;4994973;28;20046;-81
2022/02/11 06:36:20;;;;;;;50.17;26.35;;;2.40;99.90;;;;;;5009731;28;20057;-82
2022/02/11 06:38:48;;;;;;;51.38;26.45;;;2.40;99.90;;;;;;5002447;28;20080;-82
2022/02/11 06:41:15;;;;;;;59.78;30.98;;;2.40;99.90;;;;;;5043002;28;20059;-81
2022/02/11 06:43:41;;;;;;;49.42;28.10;;;2.50;99.90;;;;;;5011463;28;20053;-82
2022/02/11 06:46:09;;;;;;;42.40;24.70;;;2.40;99.90;;;;;;5012184;28;20048;-83
2022/02/11 06:48:36;;;;;;;54.00;28.13;;;2.50;99.90;;;;;;5028770;28;20048;-81
2022/02/11 06:51:03;;;;;;;49.22;28.25;;;2.50;99.90;;;;;;5008882;28;20379;-81
2022/02/11 06:53:32;;;;;;;55.75;28.08;;;2.50;99.90;;;;;;5022674;28;20165;-83
2022/02/11 06:55:59;;;;;;;47.17;25.70;;;2.50;99.90;;;;;;5027183;28;20547;-82
2022/02/11 06:58:26;;;;;;;43.92;22.27;;;2.60;99.90;;;;;;5011264;28;20136;-82
2022/02/11 07:00:53;;;;;;;51.35;28.10;;;2.60;99.90;;;;;;5010231;28;20045;-82
2022/02/11 07:03:20;;;;;;;49.72;27.38;;;2.60;99.90;;;;;;5026420;28;20538;-81
2022/02/11 07:05:47;;;;;;;56.05;25.65;;;2.60;99.90;;;;;;5025035;28;20522;-82
2022/02/11 07:08:14;;;;;;;38.20;22.77;;;2.60;99.90;;;;;;5010974;28;20300;-81
2022/02/11 07:10:40;;;;;;;39.58;23.98;;;2.60;99.90;;;;;;5025593;28;20194;-83
2022/02/11 07:13:13;;;;;;;49.60;27.00;;;2.60;99.90;;;;;;5026373;28;20056;-82
2022/02/11 07:15:44;;;;;;;51.13;27.50;;;2.60;99.90;;;;;;5025285;28;20052;-82
2022/02/11 07:18:11;;;;;;;44.55;24.58;;;2.60;99.90;;;;;;5026679;28;20053;-81
2022/02/11 07:20:40;;;;;;;39.72;21.55;;;2.70;99.90;;;;;;5039135;28;20045;-81
2022/02/11 07:23:07;;;;;;;44.50;22.70;;;2.70;99.90;;;;;;5047235;28;20045;-82
2022/02/11 07:25:34;;;;;;;31.65;19.23;;;2.70;99.90;;;;;;5030823;28;20040;-82
2022/02/11 07:28:01;;;;;;;35.38;21.98;;;2.70;99.90;;;;;;5047234;28;20052;-81
2022/02/11 07:30:30;;;;;;;46.65;28.05;;;2.70;99.90;;;;;;5025040;28;20041;-83
2022/02/11 07:32:57;;;;;;;48.47;26.70;;;2.80;99.90;;;;;;5027232;28;20052;-82
2022/02/11 07:35:24;;;;;;;54.42;24.77;;;2.80;99.90;;;;;;5028649;28;20045;-80
2022/02/11 07:37:51;;;;;;;41.88;25.23;;;2.80;99.90;;;;;;5029009;28;20114;-82
2022/02/11 07:40:18;;;;;;;46.88;26.00;;;2.80;99.90;;;;;;5023401;28;20049;-82
2022/02/11 07:42:51;;;;;;;46.08;25.63;;;2.80;99.90;;;;;;5010726;28;20132;-82
2022/02/11 07:45:20;;;;;;;34.72;21.30;;;2.80;99.90;;;;;;5027034;28;20092;-83
2022/02/11 07:47:49;;;;;;;27.02;16.20;;;2.80;99.90;;;;;;5026422;28;20095;-83
2022/02/11 07:50:16;;;;;;;26.70;15.93;;;2.80;99.90;;;;;;5008446;28;20115;-81
2022/02/11 07:52:42;;;;;;;29.15;16.63;;;2.80;99.90;;;;;;4992391;28;20073;-81
2022/02/11 07:55:09;;;;;;;36.55;17.40;;;2.90;99.90;;;;;;5017541;28;20049;-82
2022/02/11 07:57:36;;;;;;;37.92;18.52;;;2.90;99.90;;;;;;5011248;28;20057;-82
2022/02/11 08:00:04;;;;;;;28.15;16.58;;;2.90;99.90;;;;;;5007579;28;20041;-82
2022/02/11 08:02:38;;;;;;;;;;;3.00;99.90;;;;;;5024691;28;20053;-82
2022/02/11 08:05:06;;;;;;;29.08;15.93;;;2.90;99.90;;;;;;5022253;28;20401;-81
2022/02/11 08:07:32;;;;;;;33.08;15.35;;;2.90;99.90;;;;;;5010276;28;20045;-84
2022/02/11 08:09:59;;;;;;;33.38;14.85;;;2.90;99.90;;;;;;5027553;28;20051;-82
2022/02/11 08:12:26;;;;;;;30.42;15.90;;;2.90;99.90;;;;;;5027779;28;20066;-82
2022/02/11 08:14:53;;;;;;;32.22;14.20;;;2.80;99.90;;;;;;5027228;28;20048;-83
2022/02/11 08:17:23;;;;;;;25.00;12.65;;;2.90;99.90;;;;;;5012785;28;20095;-83
2022/02/11 08:19:50;;;;;;;21.20;11.13;;;2.90;99.90;;;;;;5018653;28;20072;-82
2022/02/11 08:22:17;;;;;;;21.08;11.43;;;2.90;99.90;;;;;;5008989;28;20057;-82
2022/02/11 08:24:44;;;;;;;31.88;13.45;;;2.90;99.90;;;;;;5011671;28;20052;-82
2022/02/11 08:27:13;;;;;;;28.33;12.15;;;3.00;99.90;;;;;;5027048;28;20109;-82
2022/02/11 08:29:42;;;;;;;30.25;12.52;;;3.00;99.90;;;;;;5026140;28;20049;-82
2022/02/11 08:32:09;;;;;;;25.23;13.57;;;3.00;99.90;;;;;;5007543;28;20448;-83
2022/02/11 08:34:36;;;;;;;24.08;10.63;;;3.00;99.90;;;;;;4997019;28;20103;-81
2022/02/11 08:37:03;;;;;;;28.17;12.20;;;2.90;99.90;;;;;;5004379;28;20042;-85
2022/02/11 08:39:33;;;;;;;20.35;9.95;;;3.00;99.90;;;;;;5011721;28;20052;-82
2022/02/11 08:42:01;;;;;;;21.45;8.75;;;3.00;99.90;;;;;;5019608;28;20319;-79
2022/02/11 08:44:28;;;;;;;24.13;7.07;;;3.00;99.90;;;;;;5028516;28;20079;-80
2022/02/11 08:46:55;;;;;;;17.17;5.50;;;2.90;99.90;;;;;;5038962;28;20048;-80
2022/02/11 08:49:22;;;;;;;20.02;4.97;;;3.00;99.90;;;;;;5034790;28;20068;-80
2022/02/11 08:51:49;;;;;;;22.90;6.07;;;2.90;99.90;;;;;;5028721;28;20183;-79
2022/02/11 08:54:15;;;;;;;20.05;4.43;;;3.00;99.90;;;;;;5010681;28;20688;-80
2022/02/11 08:56:42;;;;;;;20.70;3.72;;;3.00;99.90;;;;;;5026000;28;20052;-79
2022/02/11 08:59:09;;;;;;;16.00;3.40;;;3.00;99.90;;;;;;5017436;28;20121;-79
2022/02/11 09:01:36;;;;;;;11.90;2.58;;;3.00;99.90;;;;;;5011485;28;20060;-79
2022/02/11 09:04:03;;;;;;;16.20;3.83;;;3.00;99.90;;;;;;5010205;28;20115;-80
2022/02/11 09:06:29;;;;;;;17.35;2.67;;;3.00;99.90;;;;;;5012662;28;20037;-80
2022/02/11 09:08:56;;;;;;;18.58;2.88;;;2.90;99.90;;;;;;5036120;28;20060;-81
2022/02/11 09:11:23;;;;;;;15.68;2.83;;;2.90;99.90;;;;;;5037002;28;20052;-80
2022/02/11 09:13:51;;;;;;;19.88;3.15;;;2.80;99.90;;;;;;5002531;28;20045;-79
2022/02/11 09:16:18;;;;;;;8.55;1.85;;;2.90;99.90;;;;;;5015608;28;20042;-79
2022/02/11 09:18:45;;;;;;;15.07;2.50;;;2.90;99.90;;;;;;5014630;28;20186;-80
2022/02/11 09:21:12;;;;;;;13.32;2.47;;;2.90;99.90;;;;;;5046591;28;20336;-81
2022/02/11 09:23:39;;;;;;;14.68;2.60;;;2.90;99.90;;;;;;5015246;28;20321;-80
2022/02/11 09:26:06;;;;;;;23.48;4.70;;;2.90;99.90;;;;;;5026750;28;20056;-80
2022/02/11 09:28:33;;;;;;;12.93;1.98;;;2.90;99.90;;;;;;5026671;28;20075;-80
2022/02/11 09:31:00;;;;;;;13.77;3.22;;;2.80;99.90;;;;;;5009219;28;20045;-80
2022/02/11 09:33:27;;;;;;;26.45;4.68;;;2.80;99.90;;;;;;5016548;28;20410;-79
2022/02/11 09:35:54;;;;;;;24.67;2.65;;;2.90;99.90;;;;;;5006715;28;20080;-79
2022/02/11 09:38:23;;;;;;;14.88;2.63;;;2.90;99.90;;;;;;5010724;28;20049;-79
2022/02/11 09:40:51;;;;;;;12.68;2.97;;;2.90;99.90;;;;;;5007077;28;20060;-79
2022/02/11 09:43:20;;;;;;;11.18;2.40;;;2.80;99.90;;;;;;5007770;28;20474;-80
2022/02/11 09:45:47;;;;;;;11.05;3.42;;;2.80;99.90;;;;;;5006552;28;20046;-80
2022/02/11 09:48:16;;;;;;;15.50;3.53;;;2.80;99.90;;;;;;5022514;28;20075;-79
2022/02/11 09:50:42;;;;;;;15.02;3.80;;;2.70;99.90;;;;;;5022965;28;20038;-80
2022/02/11 09:53:13;;;;;;;17.55;3.20;;;2.80;99.90;;;;;;5008467;28;20056;-80
2022/02/11 09:55:41;;;;;;;9.10;2.38;;;2.80;99.90;;;;;;5026111;28;20358;-81
2022/02/11 09:58:18;;;;;;;10.40;2.40;;;2.80;99.90;;;;;;5027060;28;20608;-80
2022/02/11 10:00:49;;;;;;;14.57;2.22;;;2.70;99.90;;;;;;5009450;28;20546;-81
2022/02/11 10:03:20;;;;;;;14.95;3.17;;;2.70;99.90;;;;;;5026253;28;20032;-81
2022/02/11 10:05:58;;;;;;;22.00;3.72;;;2.70;99.90;;;;;;5006552;28;20041;-81
2022/02/11 10:08:27;;;;;;;11.35;3.00;;;2.70;99.90;;;;;;5028943;28;20509;-80
2022/02/11 10:10:56;;;;;;;16.98;2.55;;;2.70;99.90;;;;;;5011747;28;20045;-80
2022/02/11 10:13:30;;;;;;;12.70;3.42;;;2.80;99.90;;;;;;5009755;28;20106;-85
2022/02/11 10:16:08;;;;;;;17.58;3.45;;;2.80;99.90;;;;;;5009980;28;20049;-82
2022/02/11 10:18:47;;;;;;;11.52;3.33;;;2.80;99.90;;;;;;5026984;28;20075;-82
2022/02/11 10:21:23;;;;;;;19.70;2.78;;;2.80;99.90;;;;;;5030641;28;20060;-83
2022/02/11 10:23:56;;;;;;;12.85;3.40;;;2.80;99.90;;;;;;5046749;28;20079;-81
2022/02/11 10:26:24;;;;;;;13.63;3.92;;;2.90;99.90;;;;;;5006420;28;20057;-80
2022/02/11 10:28:51;;;;;;;15.93;3.45;;;2.90;99.90;;;;;;5014570;28;20523;-81
2022/02/11 10:31:21;;;;;;;18.30;3.17;;;2.90;99.90;;;;;;5015188;28;20049;-80
2022/02/11 10:34:03;;;;;;;13.13;3.78;;;2.90;99.90;;;;;;5031987;28;20040;-81
2022/02/11 10:36:34;;;;;;;13.10;4.00;;;3.00;99.90;;;;;;5029362;28;20099;-83
2022/02/11 10:39:27;;;;;;;15.95;3.60;;;3.00;99.90;;;;;;5018619;28;20060;-82
2022/02/11 10:41:59;;;;;;;20.05;3.83;;;3.00;99.90;;;;;;5028831;28;20481;-81
2022/02/11 10:44:29;;;;;;;13.43;3.38;;;3.10;99.90;;;;;;5028587;28;20061;-81
2022/02/11 10:47:04;;;;;;;11.13;2.83;;;3.00;99.90;;;;;;5023550;28;20561;-81
2022/02/11 10:49:32;;;;;;;13.02;2.88;;;3.10;99.90;;;;;;5022906;28;20644;-81
2022/02/11 10:52:21;;;;;;;16.98;2.83;;;3.10;99.90;;;;;;5018298;28;20120;-81
2022/02/11 10:54:56;;;;;;;28.20;3.95;;;3.10;99.90;;;;;;5023422;28;20044;-80
2022/02/11 10:57:27;;;;;;;14.75;2.95;;;3.10;99.90;;;;;;5023948;28;20056;-81
2022/02/11 10:59:55;;;;;;;12.40;2.40;;;3.20;99.90;;;;;;5025658;28;20060;-79
2022/02/11 11:02:23;;;;;;;13.02;3.63;;;3.20;99.90;;;;;;5026903;28;20761;-80
2022/02/11 11:04:52;;;;;;;11.90;2.13;;;3.20;99.90;;;;;;5009910;28;20130;-80
2022/02/11 11:07:28;;;;;;;9.65;2.10;;;3.30;99.90;;;;;;5022579;28;20052;-79
2022/02/11 11:10:15;;;;;;;14.82;2.28;;;3.30;99.90;;;;;;5022251;28;20118;-80
2022/02/11 11:12:53;;;;;;;10.45;2.42;;;3.30;99.90;;;;;;5010814;28;20079;-79
2022/02/11 11:15:20;;;;;;;11.02;2.53;;;3.20;99.90;;;;;;5026607;28;20045;-80
2022/02/11 11:17:49;;;;;;;8.02;2.15;;;3.20;99.90;;;;;;5023100;28;20045;-81
2022/02/11 11:20:20;;;;;;;14.55;3.20;;;3.20;99.90;;;;;;4989621;28;20053;-81
2022/02/11 11:22:59;;;;;;;10.43;2.75;;;3.20;99.90;;;;;;5006285;28;20129;-79
2022/02/11 11:25:50;;;;;;;8.07;2.45;;;3.20;99.90;;;;;;4988932;28;20432;-80
2022/02/11 11:28:39;;;;;;;12.02;2.50;;;3.20;99.90;;;;;;5010118;28;20077;-80
2022/02/11 11:31:27;;;;;;;16.55;3.13;;;3.10;99.90;;;;;;5004631;28;20049;-80
2022/02/11 11:34:16;;;;;;;11.18;2.67;;;3.20;99.90;;;;;;4999507;28;20106;-80
2022/02/11 11:36:48;;;;;;;17.42;3.05;;;3.10;99.90;;;;;;5004839;28;20657;-80
2022/02/11 11:39:16;;;;;;;13.50;2.50;;;3.10;99.90;;;;;;5005662;28;20049;-80
2022/02/11 11:41:43;;;;;;;12.88;2.95;;;3.10;99.90;;;;;;5021304;28;20135;-78
2022/02/11 11:44:30;;;;;;;12.98;2.35;;;3.00;99.90;;;;;;5029584;28;20124;-79
2022/02/11 11:47:03;;;;;;;18.05;3.10;;;3.10;99.90;;;;;;5025578;28;20049;-81
2022/02/11 11:49:41;;;;;;;6.55;1.77;;;3.10;99.90;;;;;;4999778;28;20052;-80
2022/02/11 11:52:10;;;;;;;16.65;3.40;;;3.10;99.90;;;;;;5022936;28;20099;-78
2022/02/11 11:54:37;;;;;;;10.15;2.60;;;3.10;99.90;;;;;;5022754;28;20081;-81
2022/02/11 11:57:18;;;;;;;15.35;2.22;;;3.10;99.90;;;;;;4989732;28;20656;-81
2022/02/11 11:59:49;;;;;;;9.27;1.95;;;3.20;99.90;;;;;;5019535;28;20136;-80
2022/02/11 12:02:31;;;;;;;13.32;2.92;;;3.10;99.90;;;;;;5018625;28;20068;-80
2022/02/11 12:04:59;;;;;;;11.43;2.00;;;3.00;99.90;;;;;;4989650;28;20446;-80
2022/02/11 12:07:35;;;;;;;14.05;3.60;;;3.00;99.90;;;;;;4990905;28;20123;-80
2022/02/11 12:10:04;;;;;;;12.20;3.03;;;3.00;99.90;;;;;;5029005;28;20033;-79
2022/02/11 12:12:34;;;;;;;10.68;2.15;;;3.00;99.90;;;;;;5014215;28;20090;-81
2022/02/11 12:15:09;;;;;;;9.23;2.33;;;3.10;99.90;;;;;;5029656;28;20048;-80
2022/02/11 12:17:36;;;;;;;14.93;3.38;;;3.20;99.90;;;;;;5027930;28;20044;-80
2022/02/11 12:20:05;;;;;;;14.98;3.08;;;3.20;99.90;;;;;;5009401;28;20067;-81
2022/02/11 12:22:32;;;;;;;13.20;2.80;;;3.20;99.90;;;;;;5043654;28;20125;-83
2022/02/11 12:27:50;;;;;;;11.65;2.90;;;3.30;99.90;;;;;;5009598;28;20054;-81
2022/02/11 12:30:21;;;;;;;14.95;3.30;;;3.30;99.90;;;;;;5026798;28;20688;-81
2022/02/11 12:32:56;;;;;;;13.88;2.63;;;3.20;99.90;;;;;;5013936;28;20096;-81
2022/02/11 12:35:26;;;;;;;13.30;3.13;;;3.20;99.90;;;;;;5012946;28;20067;-80
2022/02/11 12:37:53;;;;;;;13.15;3.17;;;3.20;99.90;;;;;;5030679;28;20056;-80
2022/02/11 12:40:30;;;;;;;13.73;3.47;;;3.20;99.90;;;;;;5021737;28;20040;-81
2022/02/11 12:43:02;;;;;;;8.45;2.35;;;3.20;99.90;;;;;;5016554;28;20674;-82
2022/02/11 12:45:37;;;;;;;6.53;2.65;;;3.30;99.90;;;;;;5030588;28;20041;-80
2022/02/11 12:48:09;;;;;;;10.30;3.70;;;3.20;99.90;;;;;;5014600;28;20329;-82
2022/02/11 12:50:40;;;;;;;7.20;3.55;;;3.20;99.90;;;;;;5030676;28;20152;-82
2022/02/11 12:53:10;;;;;;;10.63;3.45;;;3.30;99.90;;;;;;5025800;28;20375;-81
2022/02/11 12:55:38;;;;;;;12.10;2.97;;;3.30;99.90;;;;;;5026238;28;20588;-82
2022/02/11 12:58:10;;;;;;;19.25;4.25;;;3.30;99.90;;;;;;5035525;28;20045;-81
2022/02/11 13:00:39;;;;;;;11.27;3.35;;;3.20;99.90;;;;;;5016921;28;20088;-80
2022/02/11 13:03:10;;;;;;;8.38;3.25;;;3.20;99.90;;;;;;5030774;28;20056;-81
2022/02/11 13:05:52;;;;;;;16.52;3.33;;;3.30;99.90;;;;;;5013170;28;20591;-79
2022/02/11 13:08:23;;;;;;;14.18;3.47;;;3.30;99.90;;;;;;5030746;28;20071;-80
2022/02/11 13:11:07;;;;;;;11.77;2.92;;;3.30;99.90;;;;;;5013727;28;20273;-82
2022/02/11 13:13:35;;;;;;;14.68;2.40;;;3.20;99.90;;;;;;5015840;28;20542;-84
2022/02/11 13:16:05;;;;;;;9.75;2.85;;;3.30;99.90;;;;;;5014891;28;20732;-82
2022/02/11 13:18:36;;;;;;;10.90;3.03;;;3.20;99.90;;;;;;5031008;28;20244;-83
2022/02/11 13:21:11;;;;;;;6.03;2.47;;;3.20;99.90;;;;;;5014547;28;20049;-83
2022/02/11 13:23:39;;;;;;;9.05;2.40;;;3.30;99.90;;;;;;5033256;28;20107;-82
2022/02/11 13:26:12;;;;;;;10.13;3.38;;;3.30;99.90;;;;;;5012794;28;20286;-81
2022/02/11 13:28:50;;;;;;;10.93;2.80;;;3.20;99.90;;;;;;5032321;28;20048;-81
2022/02/11 13:31:18;;;;;;;7.13;2.35;;;3.30;99.90;;;;;;5030379;28;20053;-83
2022/02/11 13:33:49;;;;;;;8.30;3.25;;;3.20;99.90;;;;;;5031500;28;20049;-82
2022/02/11 13:36:24;;;;;;;12.70;3.25;;;3.20;99.90;;;;;;5029548;28;20041;-80
2022/02/11 13:38:51;;;;;;;11.07;2.17;;;3.20;99.90;;;;;;5029245;28;20044;-81
2022/02/11 13:41:25;;;;;;;5.75;2.05;;;3.10;99.90;;;;;;5011207;28;20053;-83
2022/02/11 13:44:08;;;;;;;7.45;1.55;;;2.90;99.90;;;;;;5031434;28;20041;-83
2022/02/11 13:46:54;;;;;;;5.82;2.78;;;2.80;99.90;;;;;;5016628;28;20049;-83
2022/02/11 13:49:22;;;;;;;4.70;1.60;;;2.80;99.90;;;;;;5013492;28;20116;-84
2022/02/11 13:55:06;;;;;;;11.68;2.47;;;2.90;99.90;;;;;;5026865;28;20488;-82
2022/02/11 13:57:35;;;;;;;5.43;2.47;;;2.90;99.90;;;;;;5013087;28;20048;-84
2022/02/11 14:00:23;;;;;;;11.70;2.60;;;2.90;99.90;;;;;;5012094;28;20045;-80
2022/02/11 14:02:50;;;;;;;8.18;2.00;;;2.90;99.90;;;;;;5011658;28;20307;-81
2022/02/11 14:05:18;;;;;;;6.03;2.72;;;2.90;99.90;;;;;;5016289;28;20041;-81
2022/02/11 14:07:55;;;;;;;7.28;2.00;;;2.90;99.90;;;;;;5028269;28;20542;-80
2022/02/11 14:10:23;;;;;;;9.65;2.67;;;2.90;99.90;;;;;;5030494;28;20369;-83
2022/02/11 14:13:08;;;;;;;13.63;2.67;;;2.90;99.90;;;;;;5016773;28;20053;-83
2022/02/11 14:15:36;;;;;;;8.77;2.58;;;2.90;99.90;;;;;;5010611;28;20076;-83
2022/02/11 14:18:04;;;;;;;9.48;2.63;;;3.00;99.90;;;;;;5010940;28;20056;-83
2022/02/11 14:20:35;;;;;;;13.73;2.50;;;3.00;99.90;;;;;;5024475;28;20071;-82
2022/02/11 14:23:17;;;;;;;8.07;2.05;;;2.90;99.90;;;;;;5014006;28;20140;-84
2022/02/11 14:25:46;;;;;;;13.30;2.38;;;3.00;99.90;;;;;;5010434;28;20050;-84
2022/02/11 14:28:15;;;;;;;15.93;2.97;;;3.10;99.90;;;;;;5010544;28;20041;-82
2022/02/11 14:30:43;;;;;;;7.65;2.92;;;3.10;99.90;;;;;;5010477;28;20549;-82
2022/02/11 14:33:11;;;;;;;12.43;2.47;;;3.10;99.90;;;;;;5010117;28;20045;-82
2022/02/11 14:35:38;;;;;;;11.43;2.92;;;3.00;99.90;;;;;;5009067;28;20057;-84
2022/02/11 14:38:05;;;;;;;12.88;3.60;;;2.90;99.90;;;;;;5011585;28;20057;-84
2022/02/11 14:40:33;;;;;;;14.57;2.33;;;3.00;99.90;;;;;;5010897;28;20049;-81
2022/02/11 14:43:04;;;;;;;8.70;1.95;;;3.00;99.90;;;;;;5030502;28;20067;-81
2022/02/11 14:45:31;;;;;;;8.40;1.50;;;3.10;99.90;;;;;;5029844;28;20106;-83
2022/02/11 14:47:58;;;;;;;8.40;2.17;;;3.00;99.90;;;;;;5030146;28;20068;-81
2022/02/11 14:50:25;;;;;;;9.45;2.22;;;3.10;99.90;;;;;;5014194;28;20542;-81
2022/02/11 14:52:52;;;;;;;12.70;2.78;;;3.00;99.90;;;;;;5015611;28;20053;-80
2022/02/11 14:55:19;;;;;;;9.75;1.67;;;3.10;99.90;;;;;;4995269;28;20080;-83
2022/02/11 14:57:46;;;;;;;8.27;2.20;;;3.10;99.90;;;;;;5011525;28;20060;-82
2022/02/11 15:00:13;;;;;;;11.40;1.80;;;3.10;99.90;;;;;;4994731;28;20133;-80
2022/02/11 15:02:40;;;;;;;8.50;1.98;;;3.10;99.90;;;;;;5023110;28;20049;-82
2022/02/11 15:05:08;;;;;;;13.68;2.10;;;3.10;99.90;;;;;;5012882;28;20052;-81
2022/02/11 15:07:35;;;;;;;10.75;2.40;;;3.10;99.90;;;;;;5030918;28;20049;-83
2022/02/11 15:10:02;;;;;;;11.48;2.65;;;3.10;99.90;;;;;;5028642;28;20423;-81
2022/02/11 15:12:28;;;;;;;13.88;3.92;;;3.10;99.90;;;;;;5013187;28;20060;-82
2022/02/11 15:14:55;;;;;;;14.73;4.05;;;3.10;99.90;;;;;;5030151;28;20102;-83
2022/02/11 15:17:22;;;;;;;15.98;4.93;;;3.10;99.90;;;;;;5011980;28;20037;-79
2022/02/11 15:19:49;;;;;;;10.38;2.97;;;3.10;99.90;;;;;;5029574;28;20061;-82
2022/02/11 15:22:16;;;;;;;14.77;3.17;;;3.10;99.90;;;;;;5026703;28;20053;-82
2022/02/11 15:24:48;;;;;;;10.85;2.78;;;3.10;99.90;;;;;;5029550;28;20053;-82
2022/02/11 15:27:16;;;;;;;16.52;2.65;;;3.10;99.90;;;;;;5013799;28;20138;-82
2022/02/11 15:29:44;;;;;;;11.07;2.92;;;3.00;99.90;;;;;;5014354;28;20071;-82
2022/02/11 15:32:11;;;;;;;15.18;5.00;;;3.00;99.90;;;;;;5014144;28;20095;-80
2022/02/11 15:34:39;;;;;;;17.67;3.20;;;3.00;99.90;;;;;;5016032;28;20055;-83
2022/02/11 15:37:11;;;;;;;15.70;3.20;;;3.00;99.90;;;;;;5029215;28;20048;-82
2022/02/11 15:39:39;;;;;;;14.75;4.25;;;3.00;99.90;;;;;;5031253;28;20037;-81
2022/02/11 15:42:06;;;;;;;12.30;3.72;;;3.00;99.90;;;;;;5013971;28;20569;-81
2022/02/11 15:44:33;;;;;;;11.45;4.10;;;3.00;99.90;;;;;;5011113;28;20037;-80
2022/02/11 15:47:00;;;;;;;16.02;4.40;;;3.00;99.90;;;;;;5014943;28;20119;-83
2022/02/11 15:49:27;;;;;;;23.05;4.00;;;3.00;99.90;;;;;;5028391;28;20725;-83
2022/02/11 15:51:54;;;;;;;16.67;5.80;;;3.00;99.90;;;;;;5021636;28;20103;-82
2022/02/11 15:54:20;;;;;;;14.80;4.93;;;3.00;99.90;;;;;;5022329;28;20498;-82
2022/02/11 15:56:47;;;;;;;18.70;4.75;;;3.00;99.90;;;;;;5030799;28;20037;-82
2022/02/11 15:59:14;;;;;;;17.95;5.85;;;3.00;99.90;;;;;;5013026;28;20739;-82
2022/02/11 16:01:41;;;;;;;15.80;4.40;;;3.00;99.90;;;;;;5011118;28;20052;-82
2022/02/11 16:04:08;;;;;;;10.30;3.28;;;3.00;99.90;;;;;;5007698;28;20041;-82
2022/02/11 16:06:35;;;;;;;15.85;3.90;;;3.00;99.90;;;;;;5018226;28;20059;-81
2022/02/11 16:09:02;;;;;;;14.05;4.20;;;3.00;99.90;;;;;;5011873;28;20095;-82
2022/02/11 16:11:29;;;;;;;22.77;4.30;;;3.00;99.90;;;;;;5012330;28;20431;-82
2022/02/11 16:13:55;;;;;;;11.40;4.50;;;3.00;99.90;;;;;;5021776;28;20411;-81
2022/02/11 16:16:24;;;;;;;17.50;4.40;;;3.00;99.90;;;;;;5012517;28;20067;-81
2022/02/11 16:18:50;;;;;;;10.98;3.65;;;2.90;99.90;;;;;;5013737;28;20048;-82
2022/02/11 16:21:17;;;;;;;12.07;3.00;;;2.90;99.90;;;;;;5032737;28;20056;-85
2022/02/11 16:23:44;;;;;;;19.25;3.33;;;2.90;99.90;;;;;;5015376;28;20056;-81
2022/02/11 16:26:12;;;;;;;10.25;2.45;;;2.80;99.90;;;;;;5014201;28;20193;-82
2022/02/11 16:28:40;;;;;;;10.70;2.20;;;2.80;99.90;;;;;;5029524;28;20045;-81
2022/02/11 16:31:20;;;;;;;14.02;2.80;;;2.80;99.90;;;;;;5028846;28;20091;-81
2022/02/11 16:33:48;;;;;;;11.35;2.63;;;2.70;99.90;;;;;;5031197;28;20094;-82
2022/02/11 16:36:15;;;;;;;12.77;2.72;;;2.70;99.90;;;;;;5013929;28;20045;-82
2022/02/11 16:38:43;;;;;;;15.73;3.08;;;2.70;99.90;;;;;;5018948;28;20053;-82
2022/02/11 16:41:11;;;;;;;13.50;2.95;;;2.70;99.90;;;;;;5047658;28;20152;-81
2022/02/11 16:43:39;;;;;;;13.30;2.35;;;2.70;99.90;;;;;;5031918;28;20052;-81
2022/02/11 16:46:08;;;;;;;7.82;2.38;;;2.70;99.90;;;;;;5031183;28;20134;-81
2022/02/11 16:48:37;;;;;;;18.38;4.13;;;2.70;99.90;;;;;;5016979;28;20283;-81
2022/02/11 16:51:04;;;;;;;10.05;3.03;;;2.70;99.90;;;;;;5017492;28;20094;-81
2022/02/11 16:53:37;;;;;;;13.93;3.55;;;2.60;99.90;;;;;;5019840;28;20053;-79
2022/02/11 16:56:04;;;;;;;16.38;5.13;;;2.50;99.90;;;;;;5037689;28;20409;-82
2022/02/11 16:58:31;;;;;;;17.75;5.43;;;2.50;99.90;;;;;;5023531;28;20045;-81